sensor_id;sensor_type;location;lat;lon;timestamp;P1;durP1;ratioP1;P2;durP2;ratioP2
9940;SDS011;5009;50.656;7.188;2023-07-22T02:20:05;12.60;;;9.67;;
9940;SDS011;5009;50.656;7.188;2023-07-22T02:22:31;10.60;;;9.63;;
9940;SDS011;5009;50.656;7.188;2023-07-22T02:24:56;10.93;;;9.93;;
9940;SDS011;5009;50.656;7.188;2023-07-22T02:27:22;10.80;;;9.80;;
9940;SDS011;5009;50.656;7.188;2023-07-22T02:29:48;9.83;;;8.93;;
9940;SDS011;5009;50.656;7.188;2023-07-22T02:32:13;10.40;;;9.40;;
9940;SDS011;5009;50.656;7.188;2023-07-22T02:34:39;11.77;;;9.17;;
9940;SDS011;5009;50.656;7.188;2023-07-22T02:37:05;10.30;;;9.30;;
9940;SDS011;5009;50.656;7.188;2023-07-22T02:39:30;10.47;;;9.57;;
9940;SDS011;5009;50.656;7.188;2023-07-22T02:41:56;10.73;;;9.63;;
9940;SDS011;5009;50.656;7.188;2023-07-22T02:44:21;11.43;;;10.23;;
9940;SDS011;5009;50.656;7.188;2023-07-22T02:46:47;11.87;;;9.73;;
9940;SDS011;5009;50.656;7.188;2023-07-22T02:49:13;11.10;;;8.93;;
9940;SDS011;5009;50.656;7.188;2023-07-22T02:51:39;10.30;;;9.30;;
9940;SDS011;5009;50.656;7.188;2023-07-22T02:54:04;9.63;;;8.73;;
9940;SDS011;5009;50.656;7.188;2023-07-22T02:56:30;10.87;;;8.93;;
9940;SDS011;5009;50.656;7.188;2023-07-22T02:58:55;10.10;;;9.07;;
9940;SDS011;5009;50.656;7.188;2023-07-22T03:01:21;10.90;;;9.80;;
9940;SDS011;5009;50.656;7.188;2023-07-22T03:03:46;10.57;;;9.40;;
9940;SDS011;5009;50.656;7.188;2023-07-22T03:06:12;11.13;;;9.97;;
9940;SDS011;5009;50.656;7.188;2023-07-22T03:08:39;9.40;;;8.50;;
9940;SDS011;5009;50.656;7.188;2023-07-22T03:11:04;10.63;;;9.53;;
9940;SDS011;5009;50.656;7.188;2023-07-22T03:13:30;10.33;;;9.23;;
9940;SDS011;5009;50.656;7.188;2023-07-22T03:15:55;11.70;;;9.70;;
9940;SDS011;5009;50.656;7.188;2023-07-22T03:18:22;11.20;;;9.07;;
9940;SDS011;5009;50.656;7.188;2023-07-22T03:20:48;10.10;;;9.07;;
9940;SDS011;5009;50.656;7.188;2023-07-22T03:23:14;10.00;;;9.00;;
9940;SDS011;5009;50.656;7.188;2023-07-22T03:25:39;10.87;;;9.77;;
9940;SDS011;5009;50.656;7.188;2023-07-22T03:28:06;11.13;;;9.43;;
9940;SDS011;5009;50.656;7.188;2023-07-22T03:30:31;11.40;;;10.30;;
9940;SDS011;5009;50.656;7.188;2023-07-22T03:32:58;13.37;;;9.70;;
9940;SDS011;5009;50.656;7.188;2023-07-22T03:35:25;10.80;;;9.73;;
9940;SDS011;5009;50.656;7.188;2023-07-22T03:37:51;9.93;;;9.03;;
9940;SDS011;5009;50.656;7.188;2023-07-22T03:40:16;12.10;;;10.23;;
9940;SDS011;5009;50.656;7.188;2023-07-22T03:42:51;11.57;;;10.47;;
9940;SDS011;5009;50.656;7.188;2023-07-22T03:45:18;12.40;;;11.10;;
9940;SDS011;5009;50.656;7.188;2023-07-22T03:47:44;11.43;;;10.27;;
9940;SDS011;5009;50.656;7.188;2023-07-22T03:50:11;11.33;;;10.13;;
9940;SDS011;5009;50.656;7.188;2023-07-22T03:52:36;10.60;;;9.60;;
9940;SDS011;5009;50.656;7.188;2023-07-22T03:55:02;10.30;;;9.30;;
9940;SDS011;5009;50.656;7.188;2023-07-22T03:57:28;11.10;;;9.83;;
9940;SDS011;5009;50.656;7.188;2023-07-22T03:59:54;10.77;;;9.67;;
9940;SDS011;5009;50.656;7.188;2023-07-22T04:02:20;10.67;;;9.10;;
9940;SDS011;5009;50.656;7.188;2023-07-22T04:04:46;10.10;;;9.20;;
9940;SDS011;5009;50.656;7.188;2023-07-22T04:07:12;10.90;;;9.80;;
9940;SDS011;5009;50.656;7.188;2023-07-22T04:09:37;10.57;;;9.47;;
9940;SDS011;5009;50.656;7.188;2023-07-22T04:12:03;11.80;;;9.87;;
9940;SDS011;5009;50.656;7.188;2023-07-22T04:14:29;10.70;;;9.73;;
9940;SDS011;5009;50.656;7.188;2023-07-22T04:16:55;10.90;;;9.67;;
9940;SDS011;5009;50.656;7.188;2023-07-22T04:19:20;11.10;;;9.93;;
9940;SDS011;5009;50.656;7.188;2023-07-22T04:21:46;10.90;;;9.90;;
9940;SDS011;5009;50.656;7.188;2023-07-22T04:24:12;10.93;;;9.83;;
9940;SDS011;5009;50.656;7.188;2023-07-22T04:26:37;11.10;;;10.00;;
9940;SDS011;5009;50.656;7.188;2023-07-22T04:29:03;11.57;;;10.53;;
9940;SDS011;5009;50.656;7.188;2023-07-22T04:31:28;14.93;;;10.60;;
9940;SDS011;5009;50.656;7.188;2023-07-22T04:33:54;12.20;;;10.43;;
9940;SDS011;5009;50.656;7.188;2023-07-22T04:36:19;13.37;;;12.00;;
9940;SDS011;5009;50.656;7.188;2023-07-22T04:38:45;13.03;;;11.67;;
9940;SDS011;5009;50.656;7.188;2023-07-22T04:41:10;14.60;;;10.90;;
9940;SDS011;5009;50.656;7.188;2023-07-22T04:43:36;12.27;;;11.17;;
9940;SDS011;5009;50.656;7.188;2023-07-22T04:46:01;13.03;;;11.73;;
9940;SDS011;5009;50.656;7.188;2023-07-22T04:48:27;11.77;;;10.70;;
9940;SDS011;5009;50.656;7.188;2023-07-22T04:50:53;12.87;;;10.83;;
9940;SDS011;5009;50.656;7.188;2023-07-22T04:53:18;14.10;;;11.20;;
9940;SDS011;5009;50.656;7.188;2023-07-22T04:55:44;12.77;;;11.47;;
9940;SDS011;5009;50.656;7.188;2023-07-22T04:58:09;14.00;;;11.37;;
9940;SDS011;5009;50.656;7.188;2023-07-22T05:00:35;11.50;;;10.40;;
9940;SDS011;5009;50.656;7.188;2023-07-22T05:03:04;11.97;;;10.60;;
9940;SDS011;5009;50.656;7.188;2023-07-22T05:05:30;10.50;;;9.57;;
9940;SDS011;5009;50.656;7.188;2023-07-22T05:07:56;9.50;;;8.60;;
9940;SDS011;5009;50.656;7.188;2023-07-22T05:10:22;10.27;;;9.20;;
9940;SDS011;5009;50.656;7.188;2023-07-22T05:12:47;10.07;;;9.17;;
9940;SDS011;5009;50.656;7.188;2023-07-22T05:15:13;8.90;;;8.13;;
9940;SDS011;5009;50.656;7.188;2023-07-22T05:17:39;9.73;;;8.90;;
9940;SDS011;5009;50.656;7.188;2023-07-22T05:20:04;9.40;;;8.50;;
9940;SDS011;5009;50.656;7.188;2023-07-22T05:22:38;10.37;;;8.97;;
9940;SDS011;5009;50.656;7.188;2023-07-22T05:25:04;11.67;;;8.00;;
9940;SDS011;5009;50.656;7.188;2023-07-22T05:27:30;8.97;;;8.03;;
9940;SDS011;5009;50.656;7.188;2023-07-22T05:29:56;8.35;;;7.65;;
9940;SDS011;5009;50.656;7.188;2023-07-22T05:32:21;8.20;;;7.50;;
9940;SDS011;5009;50.656;7.188;2023-07-22T05:34:47;8.88;;;8.05;;
9940;SDS011;5009;50.656;7.188;2023-07-22T05:37:13;7.88;;;7.18;;
9940;SDS011;5009;50.656;7.188;2023-07-22T05:39:38;7.18;;;6.47;;
9940;SDS011;5009;50.656;7.188;2023-07-22T05:42:04;11.35;;;7.25;;
9940;SDS011;5009;50.656;7.188;2023-07-22T05:44:30;7.35;;;6.65;;
9940;SDS011;5009;50.656;7.188;2023-07-22T05:46:55;7.60;;;6.75;;
9940;SDS011;5009;50.656;7.188;2023-07-22T05:49:21;8.07;;;7.28;;
9940;SDS011;5009;50.656;7.188;2023-07-22T05:51:46;8.45;;;7.57;;
9940;SDS011;5009;50.656;7.188;2023-07-22T05:54:12;9.55;;;7.22;;
9940;SDS011;5009;50.656;7.188;2023-07-22T05:56:37;7.53;;;6.82;;
9940;SDS011;5009;50.656;7.188;2023-07-22T05:59:03;8.80;;;7.55;;
9940;SDS011;5009;50.656;7.188;2023-07-22T06:01:29;9.43;;;7.70;;
9940;SDS011;5009;50.656;7.188;2023-07-22T06:03:55;7.97;;;7.28;;
9940;SDS011;5009;50.656;7.188;2023-07-22T06:06:20;8.25;;;7.45;;
9940;SDS011;5009;50.656;7.188;2023-07-22T06:08:46;8.80;;;7.25;;
9940;SDS011;5009;50.656;7.188;2023-07-22T06:11:11;8.00;;;7.25;;
9940;SDS011;5009;50.656;7.188;2023-07-22T06:13:37;7.50;;;6.80;;
9940;SDS011;5009;50.656;7.188;2023-07-22T06:16:02;8.68;;;7.75;;
9940;SDS011;5009;50.656;7.188;2023-07-22T06:18:28;10.13;;;7.20;;
9940;SDS011;5009;50.656;7.188;2023-07-22T06:20:54;8.02;;;7.22;;
9940;SDS011;5009;50.656;7.188;2023-07-22T06:23:19;8.77;;;6.93;;
9940;SDS011;5009;50.656;7.188;2023-07-22T06:25:45;7.53;;;6.82;;
9940;SDS011;5009;50.656;7.188;2023-07-22T06:28:11;7.45;;;6.85;;
9940;SDS011;5009;50.656;7.188;2023-07-22T06:30:36;7.28;;;6.57;;
9940;SDS011;5009;50.656;7.188;2023-07-22T06:33:02;7.32;;;6.72;;
9940;SDS011;5009;50.656;7.188;2023-07-22T06:35:27;8.32;;;7.53;;
9940;SDS011;5009;50.656;7.188;2023-07-22T06:37:53;6.65;;;6.13;;
9940;SDS011;5009;50.656;7.188;2023-07-22T06:40:19;7.32;;;6.63;;
9940;SDS011;5009;50.656;7.188;2023-07-22T06:42:44;6.93;;;6.32;;
9940;SDS011;5009;50.656;7.188;2023-07-22T06:45:10;6.65;;;6.10;;
9940;SDS011;5009;50.656;7.188;2023-07-22T06:47:35;6.53;;;5.93;;
9940;SDS011;5009;50.656;7.188;2023-07-22T06:50:02;7.97;;;6.20;;
9940;SDS011;5009;50.656;7.188;2023-07-22T06:52:29;6.50;;;5.97;;
9940;SDS011;5009;50.656;7.188;2023-07-22T06:54:55;7.13;;;6.43;;
9940;SDS011;5009;50.656;7.188;2023-07-22T06:57:20;8.82;;;6.63;;
9940;SDS011;5009;50.656;7.188;2023-07-22T06:59:46;7.22;;;6.53;;
9940;SDS011;5009;50.656;7.188;2023-07-22T07:02:12;6.60;;;6.05;;
9940;SDS011;5009;50.656;7.188;2023-07-22T07:04:37;7.50;;;6.38;;
9940;SDS011;5009;50.656;7.188;2023-07-22T07:07:03;6.72;;;6.20;;
9940;SDS011;5009;50.656;7.188;2023-07-22T07:09:29;6.43;;;5.75;;
9940;SDS011;5009;50.656;7.188;2023-07-22T07:11:55;7.20;;;6.35;;
9940;SDS011;5009;50.656;7.188;2023-07-22T07:14:22;6.78;;;6.18;;
9940;SDS011;5009;50.656;7.188;2023-07-22T07:16:48;6.30;;;5.80;;
9940;SDS011;5009;50.656;7.188;2023-07-22T07:19:14;6.80;;;6.05;;
9940;SDS011;5009;50.656;7.188;2023-07-22T07:21:40;7.25;;;6.60;;
9940;SDS011;5009;50.656;7.188;2023-07-22T07:24:05;7.47;;;6.85;;
9940;SDS011;5009;50.656;7.188;2023-07-22T07:26:31;8.43;;;6.20;;
9940;SDS011;5009;50.656;7.188;2023-07-22T07:28:56;8.88;;;6.38;;
9940;SDS011;5009;50.656;7.188;2023-07-22T07:31:22;6.88;;;6.32;;
9940;SDS011;5009;50.656;7.188;2023-07-22T07:33:47;6.88;;;6.32;;
9940;SDS011;5009;50.656;7.188;2023-07-22T07:36:13;7.20;;;6.50;;
9940;SDS011;5009;50.656;7.188;2023-07-22T07:38:39;7.43;;;6.78;;
9940;SDS011;5009;50.656;7.188;2023-07-22T07:41:05;7.10;;;6.50;;
9940;SDS011;5009;50.656;7.188;2023-07-22T07:43:33;6.18;;;5.57;;
9940;SDS011;5009;50.656;7.188;2023-07-22T07:46:16;7.30;;;6.13;;
9940;SDS011;5009;50.656;7.188;2023-07-22T07:48:43;6.18;;;5.68;;
9940;SDS011;5009;50.656;7.188;2023-07-22T07:51:11;6.53;;;5.93;;
9940;SDS011;5009;50.656;7.188;2023-07-22T07:53:37;6.60;;;6.10;;
9940;SDS011;5009;50.656;7.188;2023-07-22T07:56:03;6.72;;;6.22;;
9940;SDS011;5009;50.656;7.188;2023-07-22T07:58:29;6.55;;;5.88;;
9940;SDS011;5009;50.656;7.188;2023-07-22T08:00:54;6.57;;;5.97;;
9940;SDS011;5009;50.656;7.188;2023-07-22T08:03:20;6.63;;;6.13;;
9940;SDS011;5009;50.656;7.188;2023-07-22T08:05:45;7.18;;;6.47;;
9940;SDS011;5009;50.656;7.188;2023-07-22T08:08:11;6.38;;;5.88;;
9940;SDS011;5009;50.656;7.188;2023-07-22T08:10:37;6.45;;;5.95;;
9940;SDS011;5009;50.656;7.188;2023-07-22T08:13:04;7.00;;;6.40;;
9940;SDS011;5009;50.656;7.188;2023-07-22T08:15:29;6.30;;;5.80;;
9940;SDS011;5009;50.656;7.188;2023-07-22T08:17:55;6.60;;;6.00;;
9940;SDS011;5009;50.656;7.188;2023-07-22T08:20:20;7.90;;;6.35;;
9940;SDS011;5009;50.656;7.188;2023-07-22T08:22:46;6.63;;;6.05;;
9940;SDS011;5009;50.656;7.188;2023-07-22T08:25:12;7.75;;;6.50;;
9940;SDS011;5009;50.656;7.188;2023-07-22T08:27:37;6.15;;;5.60;;
9940;SDS011;5009;50.656;7.188;2023-07-22T08:30:03;6.53;;;6.03;;
9940;SDS011;5009;50.656;7.188;2023-07-22T08:32:29;6.45;;;5.82;;
9940;SDS011;5009;50.656;7.188;2023-07-22T08:34:54;6.72;;;5.93;;
9940;SDS011;5009;50.656;7.188;2023-07-22T08:37:20;6.40;;;5.75;;
9940;SDS011;5009;50.656;7.188;2023-07-22T08:39:45;6.00;;;5.50;;
9940;SDS011;5009;50.656;7.188;2023-07-22T08:42:11;5.68;;;5.25;;
9940;SDS011;5009;50.656;7.188;2023-07-22T08:44:38;6.00;;;5.45;;
9940;SDS011;5009;50.656;7.188;2023-07-22T08:47:09;6.05;;;5.50;;
9940;SDS011;5009;50.656;7.188;2023-07-22T08:49:38;5.32;;;4.85;;
9940;SDS011;5009;50.656;7.188;2023-07-22T08:52:04;5.82;;;5.20;;
9940;SDS011;5009;50.656;7.188;2023-07-22T08:54:30;5.93;;;5.32;;
9940;SDS011;5009;50.656;7.188;2023-07-22T08:56:56;5.57;;;5.07;;
9940;SDS011;5009;50.656;7.188;2023-07-22T08:59:22;6.68;;;6.07;;
9940;SDS011;5009;50.656;7.188;2023-07-22T09:01:49;5.75;;;5.30;;
9940;SDS011;5009;50.656;7.188;2023-07-22T09:04:16;5.80;;;5.20;;
9940;SDS011;5009;50.656;7.188;2023-07-22T09:06:44;5.55;;;4.80;;
9940;SDS011;5009;50.656;7.188;2023-07-22T09:09:10;5.70;;;5.20;;
9940;SDS011;5009;50.656;7.188;2023-07-22T09:11:37;4.82;;;4.43;;
9940;SDS011;5009;50.656;7.188;2023-07-22T09:14:03;5.00;;;4.60;;
9940;SDS011;5009;50.656;7.188;2023-07-22T09:16:32;4.70;;;4.30;;
9940;SDS011;5009;50.656;7.188;2023-07-22T09:18:58;4.40;;;4.00;;
9940;SDS011;5009;50.656;7.188;2023-07-22T09:21:24;7.75;;;3.88;;
9940;SDS011;5009;50.656;7.188;2023-07-22T09:23:49;10.85;;;10.05;;
9940;SDS011;5009;50.656;7.188;2023-07-22T09:26:16;14.13;;;13.30;;
9940;SDS011;5009;50.656;7.188;2023-07-22T09:28:49;6.25;;;5.75;;
9940;SDS011;5009;50.656;7.188;2023-07-22T09:31:22;6.20;;;5.72;;
9940;SDS011;5009;50.656;7.188;2023-07-22T09:33:49;5.50;;;5.20;;
9940;SDS011;5009;50.656;7.188;2023-07-22T09:36:15;4.75;;;4.30;;
9940;SDS011;5009;50.656;7.188;2023-07-22T09:38:41;19.10;;;18.00;;
9940;SDS011;5009;50.656;7.188;2023-07-22T09:41:07;4.40;;;4.10;;
9940;SDS011;5009;50.656;7.188;2023-07-22T09:43:37;4.80;;;4.32;;
9940;SDS011;5009;50.656;7.188;2023-07-22T09:46:10;4.75;;;4.45;;
9940;SDS011;5009;50.656;7.188;2023-07-22T09:48:43;5.10;;;4.80;;
9940;SDS011;5009;50.656;7.188;2023-07-22T09:51:16;4.25;;;3.95;;
9940;SDS011;5009;50.656;7.188;2023-07-22T09:53:45;4.10;;;3.80;;
9940;SDS011;5009;50.656;7.188;2023-07-22T09:56:12;4.10;;;3.80;;
9940;SDS011;5009;50.656;7.188;2023-07-22T09:58:37;3.42;;;3.22;;
9940;SDS011;5009;50.656;7.188;2023-07-22T10:01:04;3.25;;;3.05;;
9940;SDS011;5009;50.656;7.188;2023-07-22T10:03:31;3.88;;;3.60;;
9940;SDS011;5009;50.656;7.188;2023-07-22T10:05:59;4.45;;;4.15;;
9940;SDS011;5009;50.656;7.188;2023-07-22T10:08:29;3.60;;;3.40;;
9940;SDS011;5009;50.656;7.188;2023-07-22T10:10:57;3.85;;;3.55;;
9940;SDS011;5009;50.656;7.188;2023-07-22T10:13:25;3.90;;;3.45;;
9940;SDS011;5009;50.656;7.188;2023-07-22T10:15:51;4.05;;;3.75;;
9940;SDS011;5009;50.656;7.188;2023-07-22T10:18:17;4.03;;;3.72;;
9940;SDS011;5009;50.656;7.188;2023-07-22T10:20:45;4.10;;;3.80;;
9940;SDS011;5009;50.656;7.188;2023-07-22T10:23:11;2.88;;;2.72;;
9940;SDS011;5009;50.656;7.188;2023-07-22T10:25:39;3.10;;;2.90;;
9940;SDS011;5009;50.656;7.188;2023-07-22T10:28:05;2.72;;;2.60;;
9940;SDS011;5009;50.656;7.188;2023-07-22T10:30:31;2.65;;;2.45;;
9940;SDS011;5009;50.656;7.188;2023-07-22T10:32:57;2.97;;;2.80;;
9940;SDS011;5009;50.656;7.188;2023-07-22T10:37:55;3.00;;;2.80;;
9940;SDS011;5009;50.656;7.188;2023-07-22T10:40:27;2.92;;;2.72;;
9940;SDS011;5009;50.656;7.188;2023-07-22T10:45:30;2.65;;;2.55;;
9940;SDS011;5009;50.656;7.188;2023-07-22T10:48:15;2.38;;;2.28;;
9940;SDS011;5009;50.656;7.188;2023-07-22T10:50:51;2.78;;;2.60;;
9940;SDS011;5009;50.656;7.188;2023-07-22T10:56:02;2.40;;;2.30;;
9940;SDS011;5009;50.656;7.188;2023-07-22T10:58:33;3.00;;;2.80;;
9940;SDS011;5009;50.656;7.188;2023-07-22T11:04:05;3.08;;;2.88;;
9940;SDS011;5009;50.656;7.188;2023-07-22T11:06:56;2.92;;;2.72;;
9940;SDS011;5009;50.656;7.188;2023-07-22T11:12:05;2.65;;;2.50;;
9940;SDS011;5009;50.656;7.188;2023-07-22T11:14:52;2.78;;;2.58;;
9940;SDS011;5009;50.656;7.188;2023-07-22T11:17:30;2.65;;;2.53;;
9940;SDS011;5009;50.656;7.188;2023-07-22T11:19:57;2.70;;;2.50;;
9940;SDS011;5009;50.656;7.188;2023-07-22T11:22:24;2.90;;;2.70;;
9940;SDS011;5009;50.656;7.188;2023-07-22T11:24:49;2.92;;;2.72;;
9940;SDS011;5009;50.656;7.188;2023-07-22T11:27:15;2.97;;;2.60;;
9940;SDS011;5009;50.656;7.188;2023-07-22T11:29:40;3.05;;;2.85;;
9940;SDS011;5009;50.656;7.188;2023-07-22T11:32:06;3.55;;;2.85;;
9940;SDS011;5009;50.656;7.188;2023-07-22T11:34:41;3.00;;;2.80;;
9940;SDS011;5009;50.656;7.188;2023-07-22T11:37:09;2.90;;;2.70;;
9940;SDS011;5009;50.656;7.188;2023-07-22T11:39:35;3.15;;;2.95;;
9940;SDS011;5009;50.656;7.188;2023-07-22T11:42:02;3.35;;;2.75;;
9940;SDS011;5009;50.656;7.188;2023-07-22T11:44:28;3.05;;;2.70;;
9940;SDS011;5009;50.656;7.188;2023-07-22T11:46:59;3.45;;;3.15;;
9940;SDS011;5009;50.656;7.188;2023-07-22T11:49:33;3.45;;;3.25;;
9940;SDS011;5009;50.656;7.188;2023-07-22T11:52:03;3.50;;;3.17;;
9940;SDS011;5009;50.656;7.188;2023-07-22T11:54:32;3.30;;;3.10;;
9940;SDS011;5009;50.656;7.188;2023-07-22T11:57:09;3.03;;;2.90;;
9940;SDS011;5009;50.656;7.188;2023-07-22T11:59:49;3.80;;;3.50;;
9940;SDS011;5009;50.656;7.188;2023-07-22T12:02:25;3.20;;;3.00;;
9940;SDS011;5009;50.656;7.188;2023-07-22T12:05:03;3.60;;;3.40;;
9940;SDS011;5009;50.656;7.188;2023-07-22T12:07:35;3.90;;;3.70;;
9940;SDS011;5009;50.656;7.188;2023-07-22T12:10:03;3.53;;;3.22;;
9940;SDS011;5009;50.656;7.188;2023-07-22T12:12:47;3.25;;;3.05;;
9940;SDS011;5009;50.656;7.188;2023-07-22T12:15:21;4.15;;;3.22;;
9940;SDS011;5009;50.656;7.188;2023-07-22T12:17:52;4.65;;;3.22;;
9940;SDS011;5009;50.656;7.188;2023-07-22T12:20:23;3.67;;;3.38;;
9940;SDS011;5009;50.656;7.188;2023-07-22T12:22:53;3.30;;;3.10;;
9940;SDS011;5009;50.656;7.188;2023-07-22T12:25:19;3.10;;;2.90;;
9940;SDS011;5009;50.656;7.188;2023-07-22T12:27:45;3.90;;;3.60;;
9940;SDS011;5009;50.656;7.188;2023-07-22T12:30:11;3.22;;;3.00;;
9940;SDS011;5009;50.656;7.188;2023-07-22T12:32:37;3.10;;;2.90;;
9940;SDS011;5009;50.656;7.188;2023-07-22T12:35:03;3.80;;;3.50;;
9940;SDS011;5009;50.656;7.188;2023-07-22T12:37:29;4.13;;;3.83;;
9940;SDS011;5009;50.656;7.188;2023-07-22T12:39:55;3.60;;;3.30;;
9940;SDS011;5009;50.656;7.188;2023-07-22T12:42:21;4.05;;;3.75;;
9940;SDS011;5009;50.656;7.188;2023-07-22T12:44:47;5.10;;;4.03;;
9940;SDS011;5009;50.656;7.188;2023-07-22T12:47:12;4.05;;;3.75;;
9940;SDS011;5009;50.656;7.188;2023-07-22T12:49:38;3.90;;;3.60;;
9940;SDS011;5009;50.656;7.188;2023-07-22T12:52:04;4.05;;;3.75;;
9940;SDS011;5009;50.656;7.188;2023-07-22T12:54:33;3.22;;;3.00;;
9940;SDS011;5009;50.656;7.188;2023-07-22T12:56:59;4.32;;;3.92;;
9940;SDS011;5009;50.656;7.188;2023-07-22T12:59:25;6.80;;;5.20;;
9940;SDS011;5009;50.656;7.188;2023-07-22T13:01:51;4.18;;;3.83;;
9940;SDS011;5009;50.656;7.188;2023-07-22T13:04:16;6.22;;;3.70;;
9940;SDS011;5009;50.656;7.188;2023-07-22T13:06:42;3.63;;;3.38;;
9940;SDS011;5009;50.656;7.188;2023-07-22T13:09:07;4.45;;;3.42;;
9940;SDS011;5009;50.656;7.188;2023-07-22T13:11:34;4.22;;;3.45;;
9940;SDS011;5009;50.656;7.188;2023-07-22T13:14:01;3.40;;;3.20;;
9940;SDS011;5009;50.656;7.188;2023-07-22T13:16:27;3.47;;;3.28;;
9940;SDS011;5009;50.656;7.188;2023-07-22T13:18:52;3.38;;;3.08;;
9940;SDS011;5009;50.656;7.188;2023-07-22T13:21:18;3.50;;;3.30;;
9940;SDS011;5009;50.656;7.188;2023-07-22T13:23:43;3.25;;;3.05;;
9940;SDS011;5009;50.656;7.188;2023-07-22T13:26:09;3.42;;;3.22;;
9940;SDS011;5009;50.656;7.188;2023-07-22T13:28:34;3.63;;;3.42;;
9940;SDS011;5009;50.656;7.188;2023-07-22T13:31:00;3.80;;;3.50;;
9940;SDS011;5009;50.656;7.188;2023-07-22T13:33:26;4.07;;;3.60;;
9940;SDS011;5009;50.656;7.188;2023-07-22T13:35:51;3.78;;;3.50;;
9940;SDS011;5009;50.656;7.188;2023-07-22T13:38:17;3.50;;;3.30;;
9940;SDS011;5009;50.656;7.188;2023-07-22T13:40:42;3.80;;;3.40;;
9940;SDS011;5009;50.656;7.188;2023-07-22T13:43:08;3.67;;;3.45;;
9940;SDS011;5009;50.656;7.188;2023-07-22T13:45:34;3.50;;;3.30;;
9940;SDS011;5009;50.656;7.188;2023-07-22T13:48:00;3.95;;;3.65;;
9940;SDS011;5009;50.656;7.188;2023-07-22T13:50:25;3.97;;;3.58;;
9940;SDS011;5009;50.656;7.188;2023-07-22T13:52:51;3.88;;;3.55;;
9940;SDS011;5009;50.656;7.188;2023-07-22T13:55:17;4.25;;;3.95;;
9940;SDS011;5009;50.656;7.188;2023-07-22T13:57:42;4.03;;;3.72;;
9940;SDS011;5009;50.656;7.188;2023-07-22T14:00:10;4.28;;;3.90;;
9940;SDS011;5009;50.656;7.188;2023-07-22T14:02:37;4.50;;;4.10;;
9940;SDS011;5009;50.656;7.188;2023-07-22T14:05:02;4.38;;;4.07;;
9940;SDS011;5009;50.656;7.188;2023-07-22T14:07:29;3.90;;;3.60;;
9940;SDS011;5009;50.656;7.188;2023-07-22T14:09:54;4.43;;;4.13;;
9940;SDS011;5009;50.656;7.188;2023-07-22T14:12:20;5.78;;;3.95;;
9940;SDS011;5009;50.656;7.188;2023-07-22T14:14:46;4.20;;;3.90;;
9940;SDS011;5009;50.656;7.188;2023-07-22T14:17:11;4.68;;;4.07;;
9940;SDS011;5009;50.656;7.188;2023-07-22T14:19:37;3.65;;;3.40;;
9940;SDS011;5009;50.656;7.188;2023-07-22T14:22:03;5.43;;;4.50;;
9940;SDS011;5009;50.656;7.188;2023-07-22T14:24:29;4.05;;;3.75;;
9940;SDS011;5009;50.656;7.188;2023-07-22T14:26:54;4.38;;;4.07;;
9940;SDS011;5009;50.656;7.188;2023-07-22T14:29:20;4.65;;;3.50;;
9940;SDS011;5009;50.656;7.188;2023-07-22T14:31:46;4.13;;;3.78;;
9940;SDS011;5009;50.656;7.188;2023-07-22T14:34:12;4.45;;;4.15;;
9940;SDS011;5009;50.656;7.188;2023-07-22T14:36:37;4.78;;;4.38;;
9940;SDS011;5009;50.656;7.188;2023-07-22T14:39:03;4.45;;;4.10;;
9940;SDS011;5009;50.656;7.188;2023-07-22T14:41:29;5.45;;;4.55;;
9940;SDS011;5009;50.656;7.188;2023-07-22T14:43:55;4.75;;;4.38;;
9940;SDS011;5009;50.656;7.188;2023-07-22T14:46:22;4.43;;;4.07;;
9940;SDS011;5009;50.656;7.188;2023-07-22T14:48:47;4.45;;;4.15;;
9940;SDS011;5009;50.656;7.188;2023-07-22T14:51:13;4.53;;;4.22;;
9940;SDS011;5009;50.656;7.188;2023-07-22T14:53:39;4.78;;;4.22;;
9940;SDS011;5009;50.656;7.188;2023-07-22T14:56:05;4.40;;;4.00;;
9940;SDS011;5009;50.656;7.188;2023-07-22T14:58:32;5.93;;;4.65;;
9940;SDS011;5009;50.656;7.188;2023-07-22T15:00:57;4.80;;;4.40;;
9940;SDS011;5009;50.656;7.188;2023-07-22T15:03:23;5.45;;;4.70;;
9940;SDS011;5009;50.656;7.188;2023-07-22T15:05:48;5.53;;;5.03;;
9940;SDS011;5009;50.656;7.188;2023-07-22T15:08:14;4.93;;;4.53;;
9940;SDS011;5009;50.656;7.188;2023-07-22T15:10:40;5.72;;;4.65;;
9940;SDS011;5009;50.656;7.188;2023-07-22T15:13:05;6.20;;;5.30;;
9940;SDS011;5009;50.656;7.188;2023-07-22T15:15:31;5.30;;;4.90;;
9940;SDS011;5009;50.656;7.188;2023-07-22T15:17:57;5.00;;;4.60;;
9940;SDS011;5009;50.656;7.188;2023-07-22T15:20:22;5.03;;;4.63;;
9940;SDS011;5009;50.656;7.188;2023-07-22T15:22:48;6.13;;;5.60;;
9940;SDS011;5009;50.656;7.188;2023-07-22T15:25:14;5.70;;;5.15;;
9940;SDS011;5009;50.656;7.188;2023-07-22T15:27:39;5.60;;;5.20;;
9940;SDS011;5009;50.656;7.188;2023-07-22T15:30:06;4.82;;;4.43;;
9940;SDS011;5009;50.656;7.188;2023-07-22T15:32:32;5.15;;;4.65;;
9940;SDS011;5009;50.656;7.188;2023-07-22T15:34:57;7.20;;;4.90;;
9940;SDS011;5009;50.656;7.188;2023-07-22T15:37:23;5.82;;;5.00;;
9940;SDS011;5009;50.656;7.188;2023-07-22T15:39:49;5.13;;;4.72;;
9940;SDS011;5009;50.656;7.188;2023-07-22T15:42:15;5.43;;;4.93;;
9940;SDS011;5009;50.656;7.188;2023-07-22T15:44:41;5.88;;;5.38;;
9940;SDS011;5009;50.656;7.188;2023-07-22T15:47:07;5.03;;;4.63;;
9940;SDS011;5009;50.656;7.188;2023-07-22T15:49:32;6.65;;;5.20;;
9940;SDS011;5009;50.656;7.188;2023-07-22T15:51:58;5.65;;;5.22;;
9940;SDS011;5009;50.656;7.188;2023-07-22T15:54:24;7.65;;;5.35;;
9940;SDS011;5009;50.656;7.188;2023-07-22T15:56:50;6.72;;;5.10;;
9940;SDS011;5009;50.656;7.188;2023-07-22T15:59:15;5.55;;;5.15;;
9940;SDS011;5009;50.656;7.188;2023-07-22T16:01:41;5.93;;;5.13;;
9940;SDS011;5009;50.656;7.188;2023-07-22T16:04:07;5.47;;;5.00;;
9940;SDS011;5009;50.656;7.188;2023-07-22T16:06:33;6.25;;;4.40;;
9940;SDS011;5009;50.656;7.188;2023-07-22T16:08:59;5.18;;;4.78;;
9940;SDS011;5009;50.656;7.188;2023-07-22T16:11:24;5.60;;;5.10;;
9940;SDS011;5009;50.656;7.188;2023-07-22T16:13:50;6.72;;;4.82;;
9940;SDS011;5009;50.656;7.188;2023-07-22T16:16:15;4.72;;;4.20;;
9940;SDS011;5009;50.656;7.188;2023-07-22T16:18:41;4.60;;;4.15;;
9940;SDS011;5009;50.656;7.188;2023-07-22T16:21:06;5.07;;;4.15;;
9940;SDS011;5009;50.656;7.188;2023-07-22T16:23:33;4.85;;;4.43;;
9940;SDS011;5009;50.656;7.188;2023-07-22T16:25:58;6.20;;;5.60;;
9940;SDS011;5009;50.656;7.188;2023-07-22T16:28:24;6.07;;;5.47;;
9940;SDS011;5009;50.656;7.188;2023-07-22T16:30:49;5.65;;;5.00;;
9940;SDS011;5009;50.656;7.188;2023-07-22T16:33:15;5.43;;;4.93;;
9940;SDS011;5009;50.656;7.188;2023-07-22T16:35:42;6.28;;;5.20;;
9940;SDS011;5009;50.656;7.188;2023-07-22T16:38:07;5.32;;;4.88;;
9940;SDS011;5009;50.656;7.188;2023-07-22T16:40:33;5.68;;;5.18;;
9940;SDS011;5009;50.656;7.188;2023-07-22T16:42:58;5.53;;;5.03;;
9940;SDS011;5009;50.656;7.188;2023-07-22T16:45:24;9.68;;;4.80;;
9940;SDS011;5009;50.656;7.188;2023-07-22T16:47:49;5.25;;;4.85;;
9940;SDS011;5009;50.656;7.188;2023-07-22T16:50:15;5.75;;;5.15;;
9940;SDS011;5009;50.656;7.188;2023-07-22T16:52:41;7.68;;;6.88;;
9940;SDS011;5009;50.656;7.188;2023-07-22T16:55:07;5.85;;;5.32;;
9940;SDS011;5009;50.656;7.188;2023-07-22T16:57:34;6.18;;;5.57;;
9940;SDS011;5009;50.656;7.188;2023-07-22T17:00:00;9.13;;;7.22;;
9940;SDS011;5009;50.656;7.188;2023-07-22T17:02:26;6.10;;;5.00;;
9940;SDS011;5009;50.656;7.188;2023-07-22T17:04:52;4.65;;;4.28;;
9940;SDS011;5009;50.656;7.188;2023-07-22T17:07:18;5.80;;;5.20;;
9940;SDS011;5009;50.656;7.188;2023-07-22T17:09:43;8.93;;;5.18;;
9940;SDS011;5009;50.656;7.188;2023-07-22T17:12:09;4.60;;;4.15;;
9940;SDS011;5009;50.656;7.188;2023-07-22T17:14:35;5.43;;;3.95;;
9940;SDS011;5009;50.656;7.188;2023-07-22T17:17:00;3.80;;;3.50;;
9940;SDS011;5009;50.656;7.188;2023-07-22T17:19:28;4.28;;;3.63;;
9940;SDS011;5009;50.656;7.188;2023-07-22T17:21:54;4.50;;;3.90;;
9940;SDS011;5009;50.656;7.188;2023-07-22T17:24:19;4.18;;;3.80;;
9940;SDS011;5009;50.656;7.188;2023-07-22T17:26:45;3.92;;;3.63;;
9940;SDS011;5009;50.656;7.188;2023-07-22T17:29:10;4.40;;;3.22;;
9940;SDS011;5009;50.656;7.188;2023-07-22T17:31:36;4.88;;;3.75;;
9940;SDS011;5009;50.656;7.188;2023-07-22T17:34:01;3.83;;;3.50;;
9940;SDS011;5009;50.656;7.188;2023-07-22T17:36:27;5.47;;;3.90;;
9940;SDS011;5009;50.656;7.188;2023-07-22T17:38:53;4.07;;;3.78;;
9940;SDS011;5009;50.656;7.188;2023-07-22T17:41:19;3.60;;;3.30;;